Historyczne dane pomiarowe

Dodano dane terminowe – wersja testowa.

Dane z okresu 1951-2019

Wersja bazy: 1.34 [2019-03-16, lista zmian], aktualizacja planowana na 2019-04-15

Dane meteo z obszaru Polski uzyskane na podstawie danych udostępnionych przez Instytut Meteorologii i Gospodarki Wodnej – Państwowy Instytut Badawczy.

 

Wybierz Datę:    

       

TemperaturaWilgotnośćWiatrCiśnienieOpadyŚniegCzas trwania zjawisk
 Stacja t tx tn tng RH VA  wxwx mslp ppp RRR   cm mm wxwxwxwxwxwxwx
1961-08-14 14.0 19.2 9.2- 87.0- 2.3 0.3---- 0.0------------
1961-08-13 14.7 17.1 13.6- 81.3- 6.0 4.3---- 0.0------------
1961-08-12 17.7 23.3 14.8- 90.3- 5.0 0.3---- 13.1------------
1961-08-11 19.2 22.9 16.7- 94.0- 8.0 2.7---- 8.2------------
1961-08-10 21.9 27.1 17.0- 79.0- 4.7 4.0---- 23.8------------
1961-08-09 21.9 28.8 14.5- 75.8- 3.0 1.7---- 0.0------------
1961-08-08 18.9 23.8 13.2- 73.5- 2.3 1.0---- 0.0------------
1961-08-07 20.2 24.4 17.6- 84.3- 5.7 4.3---- 0.5------------
1961-08-06 23.0 31.1 14.4- 76.3- 0.7 2.3---- 0.0------------
1961-08-05 18.1 24.1 15.1- 83.8- 4.7 2.7---- 0.0------------
1961-08-04 16.3 21.2 8.6- 70.0- 3.7 3.7---- 0.0------------
1961-08-03 15.4 20.7 13.0- 84.8- 5.0 2.3---- 0.3------------
1961-08-02 19.3 26.7 9.8- 75.3- 1.3 2.0---- 0.0------------
1961-08-01 12.8 18.1 11.7- 93.8- 5.3 5.0---- 2.9------------
1961-07-31 13.8 17.7 12.1- 95.8- 8.0 4.0---- 5.8------------
1961-07-30 12.7 14.1 11.0- 95.3- 7.7 3.3---- 11.2------------
1961-07-29 14.5 20.0 12.4- 88.5- 6.7 2.3---- 0.7------------
1961-07-28 17.2 21.3 15.4- 89.8- 7.7 3.0---- 30.8------------
1961-07-27 20.3 26.1 13.3- 64.8- 6.3 4.7---- 0.0------------
1961-07-26 16.5 22.3 11.3- 79.5- 7.0 3.3---- 0.0------------
1961-07-25 14.3 17.5 9.0- 82.5- 8.0 4.3---- 0.1------------
1961-07-24 14.0 18.7 11.1- 82.3- 5.3 3.7---- 0.0------------
1961-07-23 15.1 19.0 11.9- 84.0- 7.0 3.3---- 0.0------------
1961-07-22 14.7 20.5 13.5- 92.8- 7.3 4.7---- 4.2------------
1961-07-21 15.7 19.4 11.2- 82.3- 7.0 4.3---- 1.7------------
1961-07-20 16.0 22.9 8.4- 82.5- 2.7 2.3---- 0.2------------
1961-07-19 13.2 19.8 9.5- 92.5- 3.0 1.7---- 5.3------------
1961-07-18 14.5 18.6 10.0- 92.0- 6.7 4.0---- 0.5------------
1961-07-17 15.5 23.1 10.1- 82.5- 4.3 2.7---- 1.7------------
1961-07-16 13.9 17.1 11.3- 97.3- 5.3 1.7---- 14.8------------
1961-07-15 16.8 22.2 10.0- 84.5- 4.7 3.7---- 14.2------------
1961-07-14 14.8 18.7 13.6- 79.8- 7.3 4.3---- 0.0------------
1961-07-13 20.7 28.8 14.6- 84.5- 4.3 5.3---- 5.8------------
1961-07-12 19.5 26.5 11.0- 84.5- 3.3 1.7---- 0.0------------
1961-07-11 15.8 21.2 9.9- 73.8- 1.7 3.3---- 6.8------------
1961-07-10 14.1 19.2 10.4- 74.8- 5.7 5.0---- 0.9------------
1961-07-09 16.3 24.3 8.8- 74.3- 2.7 4.0---- 0.0------------
1961-07-08 15.4 21.8 9.0- 70.3- 2.7 2.7---- 0.0------------
1961-07-07 13.6 17.5 9.1- 71.5- 5.7 4.7---- 0.0------------
1961-07-06 13.6 17.4 8.0- 76.3- 3.3 5.0---- 0.1------------
1961-07-05 14.1 17.9 11.9- 73.3- 5.0 5.7---- 0.0------------
1961-07-04 18.5 25.3 16.2- 87.8- 7.7 4.0---- 7.0------------
1961-07-03 23.8 31.8 11.8- 60.0- 0.3 1.7---- 0.0------------
1961-07-02 21.9 29.5 10.7- 67.5- 0.0 0.3---- 0.0------------
1961-07-01 20.2 26.6 11.5- 69.5- 1.0 1.7---- 0.0------------
1961-06-30 18.7 25.1 10.3- 74.8- 0.3 2.7---- 0.0------------
1961-06-29 15.0 18.6 10.4- 83.0- 3.0 2.3---- 0.0------------
1961-06-28 15.1 24.0 13.7- 72.5- 5.0 5.7---- 1.6------------
1961-06-27 22.8 32.8 15.2- 79.3- 2.3 4.0---- 21.1------------
1961-06-26 22.7 28.6 15.5- 71.0- 2.7 2.7---- 0.0------------
1961-06-25 20.9 28.0 14.5- 70.3- 0.7 3.7---- 0.0------------
1961-06-24 17.8 22.8 12.4- 66.3- 2.3 5.3---- 0.0------------
1961-06-23 17.7 23.6 14.5- 76.0- 3.0 2.3---- 0.0------------
1961-06-22 16.1 22.3 8.6- 70.0- 2.0 3.0---- 9.0------------
1961-06-21 15.2 23.9 6.0- 75.8- 2.3 3.7---- 6.0------------
1961-06-20 14.6 20.1 7.7- 70.3- 1.0 2.7---- 0.0------------
1961-06-19 15.8 20.8 13.3- 80.0- 5.3 2.7---- 0.0------------
1961-06-18 20.5 27.2 14.2- 65.5- 3.0 4.3---- 0.9------------
1961-06-17 17.0 23.4 8.6- 73.8- 3.3 4.0---- 0.0------------
1961-06-16 13.3 16.9 10.8- 82.5- 6.7 4.3---- 0.0------------
321.5 ms

 

Źródłem pochodzenia danych jest Instytut Meteorologii i Gospodarki Wodnej – Państwowy Instytut Badawczy. Dane Instytutu Meteorologii i Gospodarki Wodnej – Państwowego Instytutu Badawczego zostały przetworzone.

Dane źródłowe można odnaleźć na stronie https://dane.imgw.pl